createdAt,value
2022-12-23T00:01:05.895Z,130.38
2022-12-23T00:03:33.695Z,114.95
2022-12-23T00:06:01.090Z,126.97
2022-12-23T00:08:30.477Z,124.60
2022-12-23T00:10:57.711Z,123.25
2022-12-23T00:13:43.034Z,112.90
2022-12-23T00:16:14.545Z,122.30
2022-12-23T00:18:42.102Z,114.15
2022-12-23T00:21:12.797Z,123.10
2022-12-23T00:23:47.050Z,120.43
2022-12-23T00:26:16.745Z,123.75
2022-12-23T00:28:44.425Z,126.43
2022-12-23T00:31:14.206Z,118.80
2022-12-23T00:33:44.065Z,112.35
2022-12-23T00:36:27.611Z,113.50
2022-12-23T00:39:19.586Z,112.85
2022-12-23T00:42:04.910Z,114.40
2022-12-23T00:44:31.847Z,125.65
2022-12-23T00:47:01.427Z,124.72
2022-12-23T00:49:44.323Z,113.63
2022-12-23T00:52:13.762Z,119.03
2022-12-23T00:54:40.685Z,115.50
2022-12-23T00:57:11.654Z,114.20
2022-12-23T00:59:41.516Z,116.88
2022-12-23T01:02:30.340Z,118.32
2022-12-23T01:05:19.735Z,113.65
2022-12-23T01:07:46.344Z,104.82
2022-12-23T01:10:13.076Z,115.70
2022-12-23T01:12:42.838Z,114.10
2022-12-23T01:15:10.103Z,116.82
2022-12-23T01:17:43.014Z,128.43
2022-12-23T01:20:10.278Z,115.00
2022-12-23T01:22:36.962Z,113.22
2022-12-23T01:25:04.446Z,113.85
2022-12-23T01:27:31.132Z,121.13
2022-12-23T01:29:57.980Z,108.38
2022-12-23T01:32:24.628Z,103.35
2022-12-23T01:34:51.294Z,109.20
2022-12-23T01:37:18.020Z,98.75
2022-12-23T01:39:44.727Z,111.28
2022-12-23T01:42:34.834Z,110.05
2022-12-23T01:45:21.887Z,114.75
2022-12-23T01:47:48.465Z,115.18
2022-12-23T01:51:03.472Z,113.07
2022-12-23T01:53:47.570Z,106.05
2022-12-23T01:56:37.018Z,103.30
2022-12-23T01:59:35.240Z,111.22
2022-12-23T02:02:23.811Z,102.47
2022-12-23T02:04:51.463Z,104.45
2022-12-23T02:07:37.354Z,104.18
2022-12-23T02:10:05.635Z,109.82
2022-12-23T02:12:35.688Z,105.68
2022-12-23T02:15:28.666Z,102.35
2022-12-23T02:18:13.678Z,108.13
2022-12-23T02:20:53.817Z,121.07
2022-12-23T02:23:44.692Z,101.90
2022-12-23T02:26:59.771Z,97.28
2022-12-23T02:29:39.928Z,93.65
2022-12-23T02:32:15.690Z,109.50
2022-12-23T02:35:03.717Z,108.85
2022-12-23T02:37:39.605Z,109.30
2022-12-23T02:40:28.253Z,96.97
2022-12-23T02:43:23.778Z,108.20
2022-12-23T02:46:22.914Z,101.13
2022-12-23T02:48:53.330Z,110.78
2022-12-23T02:51:22.849Z,99.97
2022-12-23T02:53:53.113Z,97.68
2022-12-23T02:56:22.781Z,103.30
2022-12-23T02:59:12.862Z,107.10
2022-12-23T03:01:42.242Z,99.97
2022-12-23T03:04:12.289Z,108.45
2022-12-23T03:06:44.750Z,103.10
2022-12-23T03:09:39.062Z,105.88
2022-12-23T03:12:16.162Z,99.68
2022-12-23T03:15:37.953Z,99.95
2022-12-23T03:18:46.722Z,104.97
2022-12-23T03:21:22.305Z,97.60
2022-12-23T03:24:05.452Z,109.80
2022-12-23T03:26:52.061Z,112.30
2022-12-23T03:29:35.563Z,102.78
2022-12-23T03:32:05.401Z,107.00
2022-12-23T03:34:38.477Z,117.10
2022-12-23T03:37:09.704Z,114.30
2022-12-23T03:39:46.898Z,113.85
2022-12-23T03:42:27.715Z,117.35
2022-12-23T03:45:36.500Z,99.57
2022-12-23T03:47:57.379Z,105.13
2022-12-23T03:50:25.472Z,103.78
2022-12-23T03:53:05.701Z,103.22
2022-12-23T03:56:09.952Z,99.78
2022-12-23T03:58:46.516Z,101.38
2022-12-23T04:01:36.615Z,101.75
2022-12-23T04:04:16.082Z,105.63
2022-12-23T04:06:50.834Z,110.22
2022-12-23T04:09:22.711Z,101.85
2022-12-23T04:11:49.748Z,100.35
2022-12-23T04:14:21.860Z,112.93
2022-12-23T04:19:16.628Z,96.93
2022-12-23T04:21:45.910Z,98.75
2022-12-23T04:24:12.700Z,99.88
2022-12-23T04:26:39.429Z,110.90
2022-12-23T04:29:08.755Z,105.82
2022-12-23T04:31:35.475Z,99.70
2022-12-23T04:34:02.236Z,101.65
2022-12-23T04:36:28.908Z,110.57
2022-12-23T04:38:59.006Z,103.10
2022-12-23T04:41:25.840Z,101.95
2022-12-23T04:43:53.344Z,106.28
2022-12-23T04:46:20.586Z,111.00
2022-12-23T04:48:47.348Z,111.63
2022-12-23T04:51:14.147Z,114.82
2022-12-23T04:53:40.780Z,107.63
2022-12-23T04:56:07.508Z,114.35
2022-12-23T04:58:34.239Z,119.70
2022-12-23T05:01:07.152Z,131.77
2022-12-23T05:03:33.948Z,120.15
2022-12-23T05:06:00.660Z,136.05
2022-12-23T05:08:27.751Z,127.22
2022-12-23T05:10:54.493Z,134.52
2022-12-23T05:13:24.738Z,128.77
2022-12-23T05:15:55.384Z,135.80
2022-12-23T05:18:23.100Z,145.40
2022-12-23T05:20:51.121Z,141.57
2022-12-23T05:23:17.926Z,142.27
2022-12-23T05:25:51.367Z,139.02
2022-12-23T05:28:18.044Z,117.43
2022-12-23T05:30:44.704Z,123.97
2022-12-23T05:33:11.357Z,116.95
2022-12-23T05:35:38.062Z,110.72
2022-12-23T05:38:04.706Z,114.68
2022-12-23T05:40:33.752Z,115.82
2022-12-23T05:43:00.805Z,108.85
2022-12-23T05:45:27.600Z,111.30
2022-12-23T05:47:54.199Z,106.97
2022-12-23T05:50:20.772Z,102.85
2022-12-23T05:52:50.505Z,115.90
2022-12-23T05:55:17.214Z,115.07
2022-12-23T05:57:43.841Z,112.50
2022-12-23T06:00:13.885Z,109.25
2022-12-23T06:02:44.391Z,99.95
2022-12-23T06:05:14.843Z,100.40
2022-12-23T06:07:41.806Z,98.00
2022-12-23T06:10:14.586Z,104.65
2022-12-23T06:12:41.269Z,96.47
2022-12-23T06:15:08.816Z,93.38
2022-12-23T06:17:35.430Z,102.07
2022-12-23T06:20:02.141Z,94.72
2022-12-23T06:22:29.075Z,113.00
2022-12-23T06:24:55.952Z,100.38
2022-12-23T06:27:22.771Z,101.90
2022-12-23T06:29:49.420Z,99.68
2022-12-23T06:32:16.056Z,96.00
2022-12-23T06:34:42.657Z,97.70
2022-12-23T06:37:09.299Z,100.40
2022-12-23T06:39:36.014Z,102.72
2022-12-23T06:42:02.698Z,98.00
2022-12-23T06:44:31.317Z,101.53
2022-12-23T06:47:01.099Z,103.93
2022-12-23T06:49:30.621Z,110.93
2022-12-23T06:51:57.156Z,114.45
2022-12-23T06:54:26.002Z,118.07
2022-12-23T06:56:52.733Z,115.85
2022-12-23T06:59:20.949Z,99.40
2022-12-23T07:01:59.536Z,111.57
2022-12-23T07:04:26.527Z,107.43
2022-12-23T07:06:53.259Z,96.50
2022-12-23T07:09:20.023Z,100.88
2022-12-23T07:11:49.801Z,117.63
2022-12-23T07:14:19.520Z,124.15
2022-12-23T07:16:46.513Z,123.70
2022-12-23T07:19:16.336Z,87.28
2022-12-23T07:21:42.979Z,113.05
2022-12-23T07:24:09.881Z,120.60
2022-12-23T07:26:36.560Z,115.55
2022-12-23T07:29:12.315Z,116.03
2022-12-23T07:31:44.729Z,104.57
2022-12-23T07:34:11.612Z,118.78
2022-12-23T07:36:38.346Z,116.82
2022-12-23T07:39:07.426Z,108.93
2022-12-23T07:41:34.072Z,112.15
2022-12-23T07:44:00.854Z,99.63
2022-12-23T07:46:27.654Z,111.65
2022-12-23T07:48:57.584Z,108.65
2022-12-23T07:51:29.092Z,117.97
2022-12-23T07:53:55.915Z,114.50
2022-12-23T07:56:22.823Z,99.30
2022-12-23T07:58:50.508Z,110.55
2022-12-23T08:01:18.239Z,102.03
2022-12-23T08:03:47.354Z,93.68
2022-12-23T08:06:18.560Z,89.57
2022-12-23T08:08:46.820Z,97.90
2022-12-23T08:11:15.251Z,91.47
2022-12-23T08:13:43.931Z,88.45
2022-12-23T08:16:14.448Z,98.68
2022-12-23T08:18:56.738Z,89.18
2022-12-23T08:23:54.201Z,79.10
2022-12-23T08:26:24.046Z,89.30
2022-12-23T08:28:53.758Z,87.65
2022-12-23T08:31:28.631Z,88.18
2022-12-23T08:34:00.566Z,90.50
2022-12-23T08:36:32.951Z,91.63
2022-12-23T08:39:02.794Z,84.80
2022-12-23T08:41:32.824Z,86.22
2022-12-23T08:43:59.903Z,75.25
2022-12-23T08:46:29.702Z,85.00
2022-12-23T08:48:58.631Z,95.63
2022-12-23T08:51:26.289Z,98.15
2022-12-23T08:54:00.445Z,96.97
2022-12-23T08:56:32.067Z,79.85
2022-12-23T08:59:02.902Z,88.00
2022-12-23T09:01:32.908Z,98.95
2022-12-23T09:04:06.053Z,94.13
2022-12-23T09:06:42.913Z,88.10
2022-12-23T09:09:11.986Z,88.07
2022-12-23T09:14:23.934Z,78.68
2022-12-23T09:16:52.619Z,82.80
2022-12-23T09:19:19.452Z,81.35
2022-12-23T09:21:46.197Z,75.32
2022-12-23T09:24:14.187Z,71.75
2022-12-23T09:26:40.925Z,81.18
2022-12-23T09:29:07.660Z,78.90
2022-12-23T09:31:37.745Z,94.80
2022-12-23T09:34:11.117Z,92.10
2022-12-23T09:36:37.821Z,91.30
2022-12-23T09:39:06.179Z,88.25
2022-12-23T09:41:46.361Z,98.38
2022-12-23T09:44:21.252Z,92.13
2022-12-23T09:46:55.456Z,84.60
2022-12-23T09:49:24.012Z,94.97
2022-12-23T09:51:57.207Z,92.30
2022-12-23T09:54:28.572Z,100.13
2022-12-23T09:56:58.153Z,85.18
2022-12-23T09:59:43.054Z,93.20
2022-12-23T10:02:40.322Z,91.00
2022-12-23T10:05:20.294Z,95.05
2022-12-23T10:07:53.039Z,92.32
2022-12-23T10:11:00.696Z,101.30
2022-12-23T10:13:41.726Z,100.85
2022-12-23T10:16:26.131Z,110.95
2022-12-23T10:19:00.000Z,112.10
2022-12-23T10:21:30.152Z,99.88
2022-12-23T10:23:56.826Z,87.90
2022-12-23T10:26:24.957Z,106.53
2022-12-23T10:29:21.085Z,104.55
2022-12-23T10:32:00.577Z,111.35
2022-12-23T10:34:50.968Z,113.72
2022-12-23T10:37:37.033Z,113.93
2022-12-23T10:40:41.136Z,118.88
2022-12-23T10:43:19.097Z,90.40
2022-12-23T10:46:26.216Z,127.45
2022-12-23T10:49:38.463Z,115.00
2022-12-23T10:52:27.423Z,126.03
2022-12-23T10:54:54.135Z,115.45
2022-12-23T10:57:21.312Z,121.10
2022-12-23T10:59:48.018Z,119.80
2022-12-23T11:02:47.373Z,120.30
2022-12-23T11:05:24.526Z,120.07
2022-12-23T11:07:51.461Z,126.70
2022-12-23T11:10:20.994Z,125.88
2022-12-23T11:12:53.237Z,120.82
2022-12-23T11:15:29.047Z,101.57
2022-12-23T11:18:06.320Z,122.35
2022-12-23T11:20:35.078Z,113.40
2022-12-23T11:23:06.632Z,105.40
2022-12-23T11:25:41.040Z,104.32
2022-12-23T11:28:12.087Z,121.40
2022-12-23T11:31:00.439Z,116.55
2022-12-23T11:33:32.772Z,108.97
2022-12-23T11:36:21.729Z,116.88
2022-12-23T11:39:14.606Z,115.15
2022-12-23T11:41:50.313Z,120.20
2022-12-23T11:44:38.333Z,112.35
2022-12-23T11:47:34.293Z,111.82
2022-12-23T11:50:09.088Z,117.65
2022-12-23T11:52:36.153Z,90.78
2022-12-23T11:55:06.220Z,117.90
2022-12-23T11:57:49.958Z,119.10
2022-12-23T12:00:55.317Z,115.57
2022-12-23T12:03:40.353Z,94.30
2022-12-23T12:06:07.999Z,102.35
2022-12-23T12:08:40.519Z,100.15
2022-12-23T12:11:18.272Z,87.28
2022-12-23T12:13:51.368Z,106.00
2022-12-23T12:16:42.123Z,101.80
2022-12-23T12:19:38.985Z,108.97
2022-12-23T12:22:17.858Z,105.93
2022-12-23T12:24:50.488Z,85.22
2022-12-23T12:27:27.597Z,101.72
2022-12-23T12:30:02.074Z,111.70
2022-12-23T12:32:57.761Z,118.00
2022-12-23T12:35:30.359Z,121.00
2022-12-23T12:38:21.308Z,109.40
2022-12-23T12:40:55.235Z,105.20
2022-12-23T12:43:37.511Z,110.53
2022-12-23T12:49:20.469Z,107.13
2022-12-23T12:52:01.642Z,102.72
2022-12-23T12:54:44.248Z,96.28
2022-12-23T12:57:15.931Z,105.82
2022-12-23T12:59:49.010Z,107.20
2022-12-23T13:03:02.545Z,99.05
2022-12-23T13:05:53.382Z,102.82
2022-12-23T13:08:46.615Z,88.03
2022-12-23T13:11:28.692Z,90.50
2022-12-23T13:14:23.748Z,93.80
2022-12-23T13:17:00.165Z,100.57
2022-12-23T13:19:40.367Z,105.95
2022-12-23T13:22:31.296Z,109.30
2022-12-23T13:27:57.784Z,114.63
2022-12-23T13:30:37.173Z,102.00
2022-12-23T13:33:13.123Z,93.13
2022-12-23T13:36:13.267Z,105.50
2022-12-23T13:38:57.831Z,90.68
2022-12-23T13:41:24.508Z,95.97
2022-12-23T13:44:00.580Z,103.80
2022-12-23T13:46:30.218Z,96.38
2022-12-23T13:49:05.027Z,97.47
2022-12-23T13:51:43.428Z,99.93
2022-12-23T13:54:33.601Z,88.68
2022-12-23T13:57:25.537Z,117.35
2022-12-23T14:00:27.093Z,82.28
2022-12-23T14:03:03.115Z,108.15
2022-12-23T14:05:43.638Z,109.85
2022-12-23T14:08:19.321Z,97.00
2022-12-23T14:11:08.303Z,99.13
2022-12-23T14:14:01.244Z,95.93
2022-12-23T14:17:05.692Z,107.45
2022-12-23T14:20:07.918Z,122.78
2022-12-23T14:22:51.561Z,85.57
2022-12-23T14:25:54.554Z,127.22
2022-12-23T14:28:44.091Z,129.48
2022-12-23T14:31:46.822Z,109.30
2022-12-23T14:34:23.472Z,102.68
2022-12-23T14:37:14.957Z,102.95
2022-12-23T14:39:42.378Z,101.27
2022-12-23T14:42:16.629Z,107.60
2022-12-23T14:44:49.229Z,108.38
2022-12-23T14:47:40.617Z,112.50
2022-12-23T14:50:32.678Z,111.53
2022-12-23T14:53:04.334Z,98.25
2022-12-23T14:55:32.278Z,99.43
2022-12-23T14:58:17.565Z,94.30
2022-12-23T15:00:51.035Z,98.78
2022-12-23T15:03:23.236Z,98.38
2022-12-23T15:05:51.074Z,93.70
2022-12-23T15:08:35.923Z,103.07
2022-12-23T15:11:36.187Z,95.60
2022-12-23T15:14:11.870Z,86.32
2022-12-23T15:16:45.122Z,90.18
2022-12-23T15:19:22.213Z,91.22
2022-12-23T15:22:15.296Z,100.55
2022-12-23T15:24:52.052Z,93.45
2022-12-23T15:27:27.653Z,89.60
2022-12-23T15:30:05.441Z,106.07
2022-12-23T15:32:39.518Z,89.10
2022-12-23T15:35:07.043Z,98.75
2022-12-23T15:37:34.650Z,91.63
2022-12-23T15:40:11.434Z,105.85
2022-12-23T15:42:48.336Z,81.50
2022-12-23T15:45:36.176Z,106.50
2022-12-23T15:48:22.164Z,81.78
2022-12-23T15:50:50.947Z,96.45
2022-12-23T15:53:23.078Z,89.45
2022-12-23T15:55:50.272Z,83.38
2022-12-23T15:58:21.585Z,83.47
2022-12-23T16:01:01.301Z,91.95
2022-12-23T16:03:44.020Z,91.03
2022-12-23T16:06:16.718Z,82.47
2022-12-23T16:08:44.762Z,106.88
2022-12-23T16:11:14.359Z,92.13
2022-12-23T16:13:59.532Z,108.72
2022-12-23T16:16:46.630Z,117.00
2022-12-23T16:19:44.302Z,114.40
2022-12-23T16:22:28.839Z,111.93
2022-12-23T16:25:26.503Z,114.72
2022-12-23T16:28:09.197Z,119.85
2022-12-23T16:30:50.032Z,130.52
2022-12-23T16:33:40.922Z,122.78
2022-12-23T16:36:26.367Z,128.18
2022-12-23T16:38:59.994Z,126.72
2022-12-23T16:41:26.687Z,127.03
2022-12-23T16:43:53.412Z,147.15
2022-12-23T16:46:23.165Z,118.78
2022-12-23T16:48:55.876Z,104.75
2022-12-23T16:51:23.467Z,124.55
2022-12-23T16:53:57.771Z,111.78
2022-12-23T16:56:50.422Z,117.20
2022-12-23T16:59:21.345Z,102.28
2022-12-23T17:02:03.689Z,109.97
2022-12-23T17:04:34.863Z,112.28
2022-12-23T17:07:01.743Z,116.80
2022-12-23T17:09:28.417Z,124.50
2022-12-23T17:11:55.269Z,121.00
2022-12-23T17:14:24.772Z,125.43
2022-12-23T17:16:51.976Z,125.85
2022-12-23T17:19:27.384Z,126.90
2022-12-23T17:22:11.941Z,131.80
2022-12-23T17:24:39.026Z,121.05
2022-12-23T17:27:16.426Z,125.78
2022-12-23T17:29:46.444Z,122.60
2022-12-23T17:32:15.596Z,115.10
2022-12-23T17:34:45.134Z,121.15
2022-12-23T17:37:18.095Z,110.18
2022-12-23T17:39:45.515Z,115.32
2022-12-23T17:42:24.946Z,127.45
2022-12-23T17:44:52.453Z,128.05
2022-12-23T17:47:21.455Z,123.32
2022-12-23T17:49:48.156Z,139.07
2022-12-23T17:52:17.824Z,134.98
2022-12-23T17:54:46.674Z,119.95
2022-12-23T18:00:33.874Z,127.82
2022-12-23T18:03:06.852Z,145.48
2022-12-23T18:05:36.703Z,127.95
2022-12-23T18:08:04.793Z,132.85
2022-12-23T18:10:42.335Z,139.20
2022-12-23T18:13:15.682Z,134.32
2022-12-23T18:15:47.365Z,138.07
2022-12-23T18:18:27.479Z,152.43
2022-12-23T18:21:00.889Z,134.82
2022-12-23T18:23:29.856Z,135.32
2022-12-23T18:26:00.701Z,139.73
2022-12-23T18:28:27.677Z,144.88
2022-12-23T18:31:00.193Z,146.25
2022-12-23T18:33:30.456Z,146.95
2022-12-23T18:35:57.280Z,146.10
2022-12-23T18:38:24.167Z,127.53
2022-12-23T18:40:55.806Z,140.25
2022-12-23T18:43:25.130Z,139.73
2022-12-23T18:46:00.117Z,137.27
2022-12-23T18:48:30.252Z,132.95
2022-12-23T18:50:56.891Z,135.02
2022-12-23T18:53:27.059Z,159.00
2022-12-23T18:55:54.466Z,155.45
2022-12-23T18:58:24.041Z,154.65
2022-12-23T19:00:53.101Z,127.75
2022-12-23T19:03:25.698Z,154.10
2022-12-23T19:05:53.441Z,151.25
2022-12-23T19:08:29.923Z,159.35
2022-12-23T19:10:56.485Z,124.80
2022-12-23T19:13:23.448Z,122.47
2022-12-23T19:15:52.739Z,162.90
2022-12-23T19:18:22.029Z,161.77
2022-12-23T19:20:49.505Z,154.43
2022-12-23T19:23:16.840Z,158.20
2022-12-23T19:25:54.824Z,167.80
2022-12-23T19:28:23.443Z,161.60
2022-12-23T19:30:51.194Z,152.82
2022-12-23T19:33:23.222Z,162.32
2022-12-23T19:38:24.937Z,154.38
2022-12-23T19:41:01.228Z,161.30
2022-12-23T19:43:27.967Z,174.60
2022-12-23T19:45:59.425Z,170.13
2022-12-23T19:48:31.666Z,176.93
2022-12-23T19:51:03.889Z,157.57
2022-12-23T19:53:36.221Z,167.15
2022-12-23T19:56:15.829Z,165.88
2022-12-23T19:58:48.814Z,161.98
2022-12-23T20:01:24.207Z,164.95
2022-12-23T20:03:55.467Z,157.13
2022-12-23T20:06:27.958Z,167.00
2022-12-23T20:09:00.250Z,165.75
2022-12-23T20:11:30.608Z,165.07
2022-12-23T20:13:58.616Z,168.52
2022-12-23T20:16:31.851Z,174.85
2022-12-23T20:19:01.778Z,163.20
2022-12-23T20:21:31.720Z,164.32
2022-12-23T20:24:04.981Z,164.82
2022-12-23T20:26:35.598Z,168.80
2022-12-23T20:29:02.503Z,171.98
2022-12-23T20:31:35.632Z,164.60
2022-12-23T20:34:07.586Z,178.05
2022-12-23T20:36:35.715Z,174.57
2022-12-23T20:39:04.420Z,180.82
2022-12-23T20:41:34.441Z,181.93
2022-12-23T20:44:33.282Z,183.93
2022-12-23T20:46:52.443Z,187.15
2022-12-23T20:49:24.488Z,191.73
2022-12-23T20:51:54.214Z,173.27
2022-12-23T20:54:33.365Z,178.70
2022-12-23T20:57:05.188Z,172.93
2022-12-23T20:59:35.207Z,161.85
2022-12-23T21:02:02.129Z,169.60
2022-12-23T21:04:35.354Z,156.45
2022-12-23T21:07:10.755Z,158.73
2022-12-23T21:09:37.346Z,156.15
2022-12-23T21:12:04.562Z,149.57
2022-12-23T21:14:31.474Z,155.00
2022-12-23T21:16:58.123Z,159.65
2022-12-23T21:19:29.382Z,170.27
2022-12-23T21:21:56.988Z,161.23
2022-12-23T21:24:24.003Z,162.13
2022-12-23T21:27:05.572Z,167.02
2022-12-23T21:29:32.234Z,177.40
2022-12-23T21:32:01.901Z,171.82
2022-12-23T21:34:28.768Z,178.27
2022-12-23T21:36:55.510Z,187.45
2022-12-23T21:39:22.181Z,174.02
2022-12-23T21:41:51.360Z,176.57
2022-12-23T21:44:18.487Z,187.18
2022-12-23T21:46:45.083Z,188.98
2022-12-23T21:49:14.270Z,184.30
2022-12-23T21:51:43.918Z,187.30
2022-12-23T21:54:11.874Z,191.10
2022-12-23T21:56:39.650Z,179.00
2022-12-23T21:59:12.678Z,191.43
2022-12-23T22:01:39.481Z,199.80
2022-12-23T22:04:06.339Z,179.43
2022-12-23T22:06:38.771Z,182.38
2022-12-23T22:09:07.512Z,188.48
2022-12-23T22:11:36.773Z,185.32
2022-12-23T22:14:06.449Z,191.00
2022-12-23T22:16:34.925Z,169.77
2022-12-23T22:19:05.326Z,189.88
2022-12-23T22:21:33.421Z,193.63
2022-12-23T22:24:00.390Z,178.65
2022-12-23T22:26:29.580Z,182.48
2022-12-23T22:28:58.008Z,191.70
2022-12-23T22:31:36.330Z,166.77
2022-12-23T22:34:03.727Z,170.93
2022-12-23T22:36:33.054Z,178.38
2022-12-23T22:39:01.409Z,188.02
2022-12-23T22:41:29.668Z,166.57
2022-12-23T22:44:00.056Z,173.50
2022-12-23T22:46:27.813Z,174.55
2022-12-23T22:48:56.547Z,175.13
2022-12-23T22:51:28.753Z,173.90
2022-12-23T22:53:57.900Z,189.20
2022-12-23T22:56:27.999Z,180.18
2022-12-23T22:58:55.108Z,190.70
2022-12-23T23:01:23.082Z,202.00
2022-12-23T23:03:56.740Z,203.73
2022-12-23T23:06:29.166Z,202.02
2022-12-23T23:09:05.265Z,212.57
2022-12-23T23:11:31.903Z,197.13
2022-12-23T23:13:58.934Z,190.43
2022-12-23T23:16:25.926Z,200.55
2022-12-23T23:18:53.637Z,190.90
2022-12-23T23:21:20.737Z,191.38
2022-12-23T23:23:47.768Z,184.88
2022-12-23T23:26:15.015Z,199.57
2022-12-23T23:28:44.641Z,201.70
2022-12-23T23:34:00.689Z,191.23
2022-12-23T23:36:27.330Z,196.60
2022-12-23T23:38:54.015Z,195.13
2022-12-23T23:41:25.945Z,195.88
2022-12-23T23:43:56.695Z,184.93
2022-12-23T23:46:26.609Z,183.25
2022-12-23T23:48:56.395Z,198.30
2022-12-23T23:51:23.775Z,173.85
2022-12-23T23:53:50.360Z,197.05
2022-12-23T23:56:23.739Z,176.48
2022-12-23T23:58:51.615Z,209.20
